Time;durP1;ratioP1;P1;durP2;ratioP2;P2;SDS_P1;SDS_P2;PMS_P1;PMS_P2;Temp;Humidity;BMP_temperature;BMP_pressure;BME280_temperature;BME280_humidity;BME280_pressure;Samples;Min_cycle;Max_cycle;Signal;HPM_P1;HPM_P2
2021/07/30 02:45:52;;;;;;;14.82;7.35;;;20.80;98.80;;;;;;5355843;24;20088;-78
2021/07/30 02:48:17;;;;;;;11.95;6.78;;;20.80;99.00;;;;;;4702050;30;20033;-78
2021/07/30 02:50:43;;;;;;;11.90;8.27;;;20.80;99.00;;;;;;4700232;30;20061;-78
2021/07/30 02:53:09;;;;;;;11.48;6.95;;;20.80;99.00;;;;;;4706543;30;20030;-78
2021/07/30 02:55:35;;;;;;;11.18;7.90;;;20.80;98.80;;;;;;4707299;30;20072;-78
2021/07/30 02:58:00;;;;;;;9.18;6.72;;;20.80;99.20;;;;;;4708672;30;20033;-78
2021/07/30 03:00:26;;;;;;;10.43;7.20;;;20.70;99.00;;;;;;4708746;30;20104;-78
2021/07/30 03:02:52;;;;;;;12.65;7.68;;;20.70;99.00;;;;;;4708829;30;20091;-78
2021/07/30 03:05:17;;;;;;;13.35;7.72;;;20.70;98.90;;;;;;4708641;30;20124;-78
2021/07/30 03:07:43;;;;;;;12.93;8.10;;;20.70;99.00;;;;;;4708818;30;20037;-80
2021/07/30 03:10:09;;;;;;;10.05;7.40;;;20.70;99.20;;;;;;4708482;30;20033;-76
2021/07/30 03:12:35;;;;;;;12.07;7.45;;;20.60;99.30;;;;;;4708164;30;20032;-78
2021/07/30 03:15:01;;;;;;;8.97;7.60;;;20.60;99.20;;;;;;4708774;30;20073;-78
2021/07/30 03:17:27;;;;;;;16.33;8.25;;;20.60;99.40;;;;;;4708604;30;20302;-78
2021/07/30 03:19:53;;;;;;;10.73;7.95;;;20.60;99.30;;;;;;4708665;30;20075;-78
2021/07/30 03:22:18;;;;;;;8.60;6.85;;;20.60;99.30;;;;;;4709059;30;20040;-78
2021/07/30 03:24:44;;;;;;;11.20;7.63;;;20.60;99.60;;;;;;4708772;30;20033;-78
2021/07/30 03:27:10;;;;;;;9.55;7.75;;;20.60;99.50;;;;;;4708646;30;20328;-78
2021/07/30 03:29:35;;;;;;;10.00;8.13;;;20.50;99.50;;;;;;4708604;30;20040;-78
2021/07/30 03:32:01;;;;;;;10.38;7.75;;;20.50;99.50;;;;;;4709640;30;20025;-78
2021/07/30 03:34:32;;;;;;;8.60;7.20;;;20.60;99.50;;;;;;4709582;30;20033;-78
2021/07/30 03:36:57;;;;;;;14.40;8.27;;;20.50;99.40;;;;;;4708434;30;20344;-78
2021/07/30 03:39:23;;;;;;;11.65;7.55;;;20.50;99.70;;;;;;4708467;30;20037;-78
2021/07/30 03:41:49;;;;;;;11.05;8.52;;;20.60;99.70;;;;;;4708479;30;20033;-78
2021/07/30 03:44:14;;;;;;;11.43;8.05;;;20.60;99.70;;;;;;4708168;30;20044;-78
2021/07/30 03:46:40;;;;;;;9.38;7.85;;;20.70;99.90;;;;;;4708218;30;20238;-78
2021/07/30 03:49:06;;;;;;;13.52;8.00;;;20.70;99.90;;;;;;4711796;30;20047;-78
2021/07/30 03:51:32;;;;;;;11.10;7.65;;;20.80;99.60;;;;;;4711505;30;20025;-78
2021/07/30 03:53:57;;;;;;;11.52;8.10;;;20.90;99.60;;;;;;4697113;30;20045;-78
2021/07/30 03:56:23;;;;;;;10.10;8.05;;;20.90;99.60;;;;;;4711398;30;20053;-78
2021/07/30 03:58:49;;;;;;;8.63;7.03;;;20.90;99.20;;;;;;4711361;30;20373;-78
2021/07/30 04:01:15;;;;;;;8.45;7.13;;;21.00;99.10;;;;;;4712315;30;20053;-78
2021/07/30 04:03:45;;;;;;;9.82;8.20;;;21.10;98.80;;;;;;4711255;30;20045;-78
2021/07/30 04:06:12;;;;;;;13.85;8.40;;;21.20;99.10;;;;;;4711229;30;20108;-78
2021/07/30 04:08:39;;;;;;;14.93;8.75;;;21.20;99.00;;;;;;4711215;30;20337;-78
2021/07/30 04:11:05;;;;;;;;;;;21.40;98.90;;;;;;4711599;30;20280;-78
2021/07/30 04:13:32;;;;;;;13.73;7.77;;;21.40;98.60;;;;;;4696849;30;19926;-79
2021/07/30 04:16:04;;;;;;;;;;;21.50;98.40;;;;;;4708324;30;20042;-78
2021/07/30 04:18:30;;;;;;;12.20;8.40;;;21.60;98.80;;;;;;4711158;30;19911;-78
2021/07/30 04:20:57;;;;;;;11.93;7.72;;;21.60;98.60;;;;;;4710957;30;20052;-78
2021/07/30 04:23:23;;;;;;;15.15;7.57;;;21.70;98.50;;;;;;4711084;30;20034;-78
2021/07/30 04:25:48;;;;;;;13.73;7.88;;;21.90;98.10;;;;;;4712078;30;20030;-78
2021/07/30 04:28:14;;;;;;;13.88;7.65;;;22.00;97.80;;;;;;4696287;30;20118;-78
2021/07/30 04:30:40;;;;;;;13.02;7.68;;;22.10;97.40;;;;;;4710627;30;20236;-78
2021/07/30 04:33:09;;;;;;;9.73;7.25;;;22.30;97.40;;;;;;4712021;30;20025;-76
2021/07/30 04:35:35;;;;;;;12.73;7.78;;;22.40;96.80;;;;;;4705186;30;20033;-76
2021/07/30 04:38:02;;;;;;;9.55;7.25;;;22.50;96.50;;;;;;4709909;30;20083;-76
2021/07/30 04:40:28;;;;;;;16.15;7.28;;;22.60;96.20;;;;;;4695499;30;20037;-76
2021/07/30 04:42:55;;;;;;;13.50;7.63;;;22.70;95.90;;;;;;4709491;30;20254;-76
2021/07/30 04:45:21;;;;;;;15.07;7.38;;;22.70;95.70;;;;;;4710013;30;20158;-76
2021/07/30 04:47:47;;;;;;;12.27;7.18;;;22.70;95.60;;;;;;4717405;30;20088;-76
2021/07/30 04:50:12;;;;;;;11.00;6.60;;;22.70;95.40;;;;;;4709469;30;20053;-76
2021/07/30 04:52:39;;;;;;;13.15;8.05;;;22.80;95.20;;;;;;4709145;30;20130;-77
2021/07/30 04:55:05;;;;;;;8.77;7.18;;;22.80;95.20;;;;;;4705243;30;20105;-78
2021/07/30 04:57:31;;;;;;;9.60;7.40;;;22.90;95.00;;;;;;4710122;30;20033;-77
2021/07/30 04:59:56;;;;;;;10.02;6.85;;;23.00;95.00;;;;;;4710938;30;20457;-77
2021/07/30 05:02:22;;;;;;;13.10;8.38;;;23.00;95.20;;;;;;4709565;30;20049;-77
2021/07/30 05:04:48;;;;;;;22.65;8.55;;;23.10;94.90;;;;;;4711109;30;20264;-78
2021/07/30 05:07:14;;;;;;;14.18;7.18;;;23.10;94.50;;;;;;4709413;30;20030;-76
2021/07/30 05:09:39;;;;;;;13.10;8.18;;;23.20;94.30;;;;;;4709329;30;20096;-78
2021/07/30 05:12:05;;;;;;;9.20;6.93;;;23.20;94.30;;;;;;4695420;30;20037;-77
2021/07/30 05:14:31;;;;;;;15.60;7.15;;;23.20;94.20;;;;;;4695338;30;20037;-78
2021/07/30 05:16:57;;;;;;;10.60;7.05;;;23.20;94.30;;;;;;4711065;30;20336;-78
2021/07/30 05:19:23;;;;;;;16.90;8.68;;;23.20;94.20;;;;;;4695626;30;20025;-78
2021/07/30 05:21:48;;;;;;;14.57;7.10;;;23.30;94.20;;;;;;4710047;30;20036;-78
2021/07/30 05:24:14;;;;;;;12.25;7.47;;;23.40;94.00;;;;;;4709771;30;20048;-78
2021/07/30 05:26:40;;;;;;;14.18;7.18;;;23.40;93.60;;;;;;4708875;30;20026;-75
2021/07/30 05:29:07;;;;;;;14.73;7.65;;;23.50;93.40;;;;;;4709051;30;20092;-78
2021/07/30 05:31:33;;;;;;;10.43;8.13;;;23.60;93.10;;;;;;4709529;30;20029;-79
2021/07/30 05:33:59;;;;;;;17.77;7.70;;;23.80;92.60;;;;;;4709533;30;20033;-78
2021/07/30 05:36:25;;;;;;;12.38;7.50;;;23.90;92.40;;;;;;4695351;30;20072;-78
2021/07/30 05:38:51;;;;;;;12.70;7.18;;;24.00;92.20;;;;;;4727674;30;20040;-78
2021/07/30 05:41:17;;;;;;;14.05;7.65;;;24.10;91.90;;;;;;4710585;30;20104;-78
2021/07/30 05:43:44;;;;;;;11.17;7.60;;;24.20;91.60;;;;;;4694892;30;20297;-77
2021/07/30 05:46:13;;;;;;;12.20;7.70;;;24.30;91.60;;;;;;4710264;30;20060;-78
2021/07/30 05:48:39;;;;;;;19.63;8.05;;;24.40;91.50;;;;;;4694014;30;20268;-78
2021/07/30 05:51:04;;;;;;;14.88;7.57;;;24.50;91.50;;;;;;4710587;30;20025;-79
2021/07/30 05:53:30;;;;;;;10.63;7.03;;;24.50;91.20;;;;;;4709994;30;20064;-78
2021/07/30 05:55:56;;;;;;;12.25;6.97;;;24.60;91.00;;;;;;4709337;30;20033;-78
2021/07/30 05:58:22;;;;;;;13.18;6.78;;;24.70;90.60;;;;;;4710719;30;20041;-77
2021/07/30 06:00:47;;;;;;;9.95;6.93;;;24.70;90.60;;;;;;4710295;30;20041;-78
2021/07/30 06:03:13;;;;;;;15.18;7.32;;;24.80;90.70;;;;;;4709624;30;20033;-80
2021/07/30 06:05:39;;;;;;;15.10;7.88;;;25.10;90.60;;;;;;4696049;30;20045;-78
2021/07/30 06:08:05;;;;;;;9.38;6.80;;;25.70;88.10;;;;;;4695344;30;20038;-80
2021/07/30 06:10:32;;;;;;;11.23;6.43;;;26.10;85.40;;;;;;4709244;30;20041;-80
2021/07/30 06:12:58;;;;;;;;;;;26.30;84.40;;;;;;4695851;30;20041;-80
2021/07/30 06:15:25;;;;;;;7.82;6.38;;;26.60;82.40;;;;;;4711321;30;20198;-81
2021/07/30 06:17:52;;;;;;;10.50;6.88;;;26.90;82.60;;;;;;4712964;30;20087;-80
2021/07/30 06:20:19;;;;;;;10.93;6.47;;;27.10;81.20;;;;;;4710134;30;20140;-80
2021/07/30 06:22:45;;;;;;;9.18;6.15;;;27.30;80.70;;;;;;4710574;30;20037;-81
2021/07/30 06:25:12;;;;;;;7.57;6.53;;;27.60;79.40;;;;;;4707138;30;20076;-82
2021/07/30 06:27:38;;;;;;;10.70;5.90;;;27.60;77.30;;;;;;4709136;30;20201;-81
2021/07/30 06:30:07;;;;;;;8.80;5.20;;;27.60;77.90;;;;;;4708630;30;20042;-81
2021/07/30 06:32:33;;;;;;;7.72;5.82;;;27.70;77.70;;;;;;4695446;30;20052;-82
2021/07/30 06:34:59;;;;;;;9.52;5.05;;;27.80;76.00;;;;;;4695932;30;20087;-81
2021/07/30 06:37:25;;;;;;;9.15;6.25;;;28.00;76.00;;;;;;4739038;30;20038;-80
2021/07/30 06:39:50;;;;;;;10.00;5.88;;;28.00;74.70;;;;;;4709614;30;20065;-80
2021/07/30 06:42:16;;;;;;;9.05;5.60;;;28.10;74.00;;;;;;4695920;30;20034;-80
2021/07/30 06:44:47;;;;;;;39.47;6.35;;;28.20;73.70;;;;;;4709486;30;20061;-80
2021/07/30 06:47:12;;;;;;;8.30;6.03;;;28.10;74.10;;;;;;4709489;30;20053;-78
2021/07/30 06:49:38;;;;;;;8.77;6.00;;;28.20;73.70;;;;;;4695337;30;20459;-80
2021/07/30 06:52:07;;;;;;;11.95;6.03;;;28.20;71.60;;;;;;4710921;30;20264;-80
2021/07/30 06:54:34;;;;;;;9.95;5.57;;;28.20;72.80;;;;;;4695240;30;20033;-79
2021/07/30 06:57:03;;;;;;;11.93;5.38;;;28.40;71.00;;;;;;4708544;30;20026;-76
2021/07/30 06:59:29;;;;;;;10.43;4.75;;;28.50;71.40;;;;;;4708246;30;20041;-77
2021/07/30 07:01:55;;;;;;;10.30;6.10;;;28.70;72.50;;;;;;4709860;30;20096;-75
2021/07/30 07:04:21;;;;;;;10.43;6.07;;;28.80;71.00;;;;;;4708248;30;20332;-76
2021/07/30 07:06:47;;;;;;;6.63;5.53;;;29.00;71.30;;;;;;4708776;30;20285;-76
2021/07/30 07:09:17;;;;;;;9.47;5.13;;;29.10;69.70;;;;;;4708035;30;20176;-75
2021/07/30 07:11:43;;;;;;;8.27;5.10;;;29.10;68.90;;;;;;4708915;30;20248;-75
2021/07/30 07:14:09;;;;;;;7.50;5.75;;;29.20;67.60;;;;;;4708981;30;20663;-75
2021/07/30 07:16:35;;;;;;;12.93;5.60;;;29.30;67.50;;;;;;4707609;30;20036;-75
2021/07/30 07:19:01;;;;;;;11.73;5.87;;;29.50;67.60;;;;;;4707391;30;20025;-75
2021/07/30 07:21:27;;;;;;;7.60;5.50;;;29.50;68.10;;;;;;4707154;30;20091;-77
2021/07/30 07:23:52;;;;;;;11.53;5.33;;;29.70;67.10;;;;;;4711350;30;20233;-76
2021/07/30 07:26:19;;;;;;;15.03;5.90;;;29.70;66.50;;;;;;4710936;30;20100;-76
2021/07/30 07:28:45;;;;;;;13.10;6.88;;;29.60;67.30;;;;;;4711530;30;20025;-75
2021/07/30 07:31:11;;;;;;;13.55;6.20;;;29.40;66.50;;;;;;4693670;30;20038;-76
2021/07/30 07:33:38;;;;;;;14.77;6.83;;;29.30;68.30;;;;;;4711877;30;20289;-76
2021/07/30 07:36:04;;;;;;;11.95;5.65;;;29.60;67.50;;;;;;4711713;30;20057;-76
2021/07/30 07:38:30;;;;;;;8.90;6.18;;;29.60;68.00;;;;;;4711825;30;20083;-76
2021/07/30 07:40:56;;;;;;;7.78;5.57;;;29.50;65.70;;;;;;4710723;30;20044;-75
2021/07/30 07:43:22;;;;;;;11.47;6.13;;;29.40;68.00;;;;;;4696114;30;20285;-76
2021/07/30 07:45:47;;;;;;;5.97;5.00;;;29.60;68.20;;;;;;4710891;30;20065;-76
2021/07/30 07:48:13;;;;;;;8.20;6.77;;;29.70;66.60;;;;;;4690813;30;20043;-76
2021/07/30 07:50:39;;;;;;;12.87;6.93;;;29.90;66.70;;;;;;4710837;30;20268;-76
2021/07/30 07:53:12;;;;;;;8.40;5.97;;;30.00;64.90;;;;;;4711166;30;20084;-75
2021/07/30 07:55:38;;;;;;;13.60;6.80;;;30.10;67.60;;;;;;4709941;30;20142;-76
2021/07/30 07:58:04;;;;;;;8.27;6.10;;;30.10;64.30;;;;;;4711288;30;20065;-75
2021/07/30 08:00:30;;;;;;;10.87;6.57;;;30.20;64.20;;;;;;4709732;30;20034;-75
2021/07/30 08:02:55;;;;;;;14.30;6.07;;;30.10;64.30;;;;;;4710133;30;20052;-75
2021/07/30 08:05:21;;;;;;;8.97;5.90;;;30.20;65.50;;;;;;4710925;30;20108;-75
2021/07/30 08:07:47;;;;;;;10.63;6.33;;;30.00;66.00;;;;;;4711430;30;20040;-76
2021/07/30 08:10:13;;;;;;;14.30;6.67;;;30.00;66.80;;;;;;4708175;30;20040;-75
2021/07/30 08:12:39;;;;;;;8.70;5.40;;;30.20;66.90;;;;;;4709652;30;20049;-75
2021/07/30 08:15:05;;;;;;;14.47;7.83;;;30.40;64.00;;;;;;4711046;30;20217;-75
2021/07/30 08:17:37;;;;;;;10.27;6.32;;;30.30;65.70;;;;;;4710562;30;20034;-76
2021/07/30 08:20:04;;;;;;;9.68;6.03;;;30.30;64.20;;;;;;4699940;30;20270;-76
2021/07/30 08:22:30;;;;;;;8.25;6.28;;;30.30;63.40;;;;;;4710106;30;20044;-77
2021/07/30 08:24:55;;;;;;;12.17;5.90;;;30.30;62.90;;;;;;4695437;30;20037;-75
2021/07/30 08:27:21;;;;;;;8.40;5.93;;;30.20;62.50;;;;;;4711158;30;20033;-75
2021/07/30 08:29:47;;;;;;;10.13;6.00;;;30.20;64.50;;;;;;4707264;30;20105;-75
2021/07/30 08:32:13;;;;;;;12.90;6.33;;;30.20;63.40;;;;;;4707913;30;20026;-75
2021/07/30 08:34:39;;;;;;;11.53;6.13;;;30.20;63.40;;;;;;4704386;30;20052;-75
2021/07/30 08:37:06;;;;;;;9.88;5.68;;;30.30;63.80;;;;;;4707702;30;20103;-76
2021/07/30 08:39:31;;;;;;;10.40;5.40;;;30.50;64.90;;;;;;4706270;30;20109;-76
2021/07/30 08:41:59;;;;;;;8.70;5.87;;;30.60;63.80;;;;;;4710986;30;20029;-78
2021/07/30 08:44:25;;;;;;;8.57;5.78;;;30.80;63.40;;;;;;4710424;30;20047;-75
2021/07/30 08:46:51;;;;;;;8.65;5.75;;;30.90;61.90;;;;;;4709638;30;20084;-76
2021/07/30 08:49:18;;;;;;;14.18;5.72;;;31.00;61.50;;;;;;4709025;30;20045;-76
2021/07/30 08:51:46;;;;;;;12.87;5.90;;;31.10;62.10;;;;;;4709098;30;20034;-76
2021/07/30 08:54:14;;;;;;;7.65;5.63;;;31.40;59.90;;;;;;4694199;30;20361;-76
2021/07/30 08:56:40;;;;;;;10.77;5.63;;;31.40;58.20;;;;;;4709659;30;20057;-76
2021/07/30 08:59:09;;;;;;;13.57;5.97;;;31.60;59.40;;;;;;4710527;30;20034;-75
2021/07/30 09:01:36;;;;;;;10.75;5.68;;;31.60;60.90;;;;;;4694982;30;20044;-76
2021/07/30 09:04:02;;;;;;;9.13;5.53;;;31.60;59.60;;;;;;4707389;30;20234;-76
2021/07/30 09:06:28;;;;;;;10.53;5.17;;;31.40;57.90;;;;;;4701087;30;20032;-76
2021/07/30 09:08:54;;;;;;;8.63;5.45;;;31.50;59.40;;;;;;4708342;30;20288;-76
2021/07/30 09:11:27;;;;;;;9.73;5.53;;;31.50;59.30;;;;;;4706056;30;20344;-76
2021/07/30 09:13:53;;;;;;;7.15;4.95;;;31.60;59.30;;;;;;4715437;30;20224;-75
2021/07/30 09:16:19;;;;;;;17.48;5.32;;;31.70;58.90;;;;;;4700592;30;20320;-75
2021/07/30 09:18:45;;;;;;;5.60;5.07;;;31.70;56.70;;;;;;4704379;30;20033;-75
2021/07/30 09:21:30;;;;;;;7.27;4.70;;;31.70;56.50;;;;;;4712187;30;20037;-76
2021/07/30 09:24:04;;;;;;;8.77;4.85;;;31.70;57.90;;;;;;4711478;30;20060;-76
2021/07/30 09:26:38;;;;;;;6.25;5.00;;;31.90;57.90;;;;;;4706465;30;20043;-76
2021/07/30 09:29:11;;;;;;;8.88;4.47;;;31.90;54.60;;;;;;4700120;30;20065;-75
2021/07/30 09:31:40;;;;;;;10.70;4.97;;;31.90;58.40;;;;;;4712594;30;20033;-76
2021/07/30 09:34:19;;;;;;;7.38;4.15;;;32.00;58.20;;;;;;4708121;30;20033;-76
2021/07/30 09:37:06;;;;;;;5.60;4.47;;;32.10;54.40;;;;;;4716412;30;20037;-76
2021/07/30 09:39:36;;;;;;;11.15;4.35;;;32.10;54.30;;;;;;4708907;30;20056;-76
2021/07/30 09:42:04;;;;;;;7.50;4.47;;;32.10;56.00;;;;;;4709516;30;20041;-76
2021/07/30 09:44:52;;;;;;;7.28;4.00;;;32.10;56.10;;;;;;4710717;30;20057;-76
2021/07/30 09:47:29;;;;;;;6.35;5.13;;;32.20;53.00;;;;;;4693662;30;20232;-76
2021/07/30 09:50:07;;;;;;;4.93;4.20;;;32.20;56.20;;;;;;4716730;30;20188;-76
2021/07/30 09:52:36;;;;;;;0.00;0.00;;;32.30;52.20;;;;;;4723393;30;20132;-76
2021/07/30 09:55:07;;;;;;;0.00;0.00;;;32.40;52.90;;;;;;4709729;30;20087;-76
2021/07/30 09:57:34;;;;;;;0.00;0.00;;;32.50;54.50;;;;;;4708485;30;20052;-76
2021/07/30 10:00:08;;;;;;;0.00;0.00;;;32.80;51.60;;;;;;4708332;30;20045;-76
2021/07/30 10:02:36;;;;;;;0.00;0.00;;;32.80;53.70;;;;;;4704752;30;20109;-76
2021/07/30 10:05:04;;;;;;;0.00;0.00;;;33.00;51.20;;;;;;4707850;30;20112;-76
2021/07/30 10:07:32;;;;;;;0.00;0.00;;;33.10;51.50;;;;;;4707972;30;20032;-76
2021/07/30 10:12:37;;;;;;;0.00;0.00;;;33.30;51.60;;;;;;4703139;30;20030;-76
2021/07/30 10:15:05;;;;;;;0.00;0.00;;;33.50;51.50;;;;;;4709261;30;20186;-76
2021/07/30 10:17:33;;;;;;;0.00;0.00;;;33.50;52.20;;;;;;4712137;30;20040;-77
2021/07/30 10:20:07;;;;;;;0.00;0.00;;;33.30;51.90;;;;;;4707890;30;20037;-76
2021/07/30 10:22:57;;;;;;;0.00;0.00;;;33.20;49.30;;;;;;4704816;30;20389;-76
2021/07/30 10:25:34;;;;;;;0.00;0.00;;;33.10;49.60;;;;;;4693484;30;20045;-76
2021/07/30 10:28:25;;;;;;;0.00;0.00;;;33.00;50.40;;;;;;4712842;30;20092;-75
2021/07/30 10:30:54;;;;;;;0.00;0.00;;;33.20;51.80;;;;;;4688843;30;20049;-76
2021/07/30 10:33:36;;;;;;;0.00;0.00;;;33.40;49.90;;;;;;4674960;30;20117;-76
2021/07/30 10:36:04;;;;;;;0.00;0.00;;;33.50;50.40;;;;;;4689436;30;20234;-76
2021/07/30 10:38:31;;;;;;;0.00;0.00;;;33.50;50.00;;;;;;4671441;30;20234;-76
2021/07/30 10:41:08;;;;;;;0.00;0.00;;;33.60;50.10;;;;;;4690026;30;20033;-76
2021/07/30 10:43:49;;;;;;;0.00;0.00;;;33.70;50.30;;;;;;4681005;30;20376;-77
2021/07/30 10:46:16;;;;;;;0.00;0.00;;;34.00;48.40;;;;;;4680984;30;20234;-76
2021/07/30 10:48:42;;;;;;;0.00;0.00;;;34.00;50.10;;;;;;4687602;30;20065;-76
2021/07/30 10:51:23;;;;;;;0.00;0.00;;;34.00;49.20;;;;;;4675141;30;20038;-75
2021/07/30 10:54:02;;;;;;;0.00;0.00;;;34.00;50.00;;;;;;4687627;30;20049;-76
2021/07/30 10:56:30;;;;;;;0.00;0.00;;;33.90;47.90;;;;;;4686666;30;20084;-76
2021/07/30 10:58:59;;;;;;;0.00;0.00;;;34.00;48.30;;;;;;4695463;30;20264;-76
2021/07/30 11:01:27;;;;;;;0.00;0.00;;;34.10;48.90;;;;;;4693253;30;20449;-76
2021/07/30 11:03:54;;;;;;;0.00;0.00;;;34.00;49.30;;;;;;4688995;30;20037;-75
2021/07/30 11:06:26;;;;;;;0.00;0.00;;;33.90;48.80;;;;;;4683292;30;20113;-77
2021/07/30 11:11:57;;;;;;;0.00;0.00;;;33.90;49.60;;;;;;4712639;30;20222;-75
2021/07/30 11:14:30;;;;;;;;;;;34.20;50.70;;;;;;4711314;30;20221;-75
2021/07/30 11:16:58;;;;;;;0.00;0.00;;;34.40;49.60;;;;;;4711074;30;19939;-75
2021/07/30 11:19:32;;;;;;;0.00;0.00;;;34.50;47.30;;;;;;4712793;30;20034;-77
2021/07/30 11:22:00;;;;;;;0.00;0.00;;;34.40;46.60;;;;;;4707204;30;20108;-76
2021/07/30 11:24:26;;;;;;;0.00;0.00;;;34.20;49.10;;;;;;4716426;30;20040;-76
2021/07/30 11:26:52;;;;;;;0.00;0.00;;;34.20;49.20;;;;;;4710518;30;20033;-76
2021/07/30 11:29:19;;;;;;;0.00;0.00;;;34.20;48.70;;;;;;4713747;30;20029;-76
2021/07/30 11:31:57;;;;;;;0.00;0.00;;;34.30;48.20;;;;;;4704951;30;20033;-75
2021/07/30 11:34:29;;;;;;;0.00;0.00;;;34.20;49.20;;;;;;4694946;30;20080;-76
2021/07/30 11:37:00;;;;;;;0.00;0.00;;;34.10;50.10;;;;;;4708666;30;20037;-76
2021/07/30 11:39:38;;;;;;;0.00;0.00;;;34.20;51.30;;;;;;4708530;30;20053;-76
2021/07/30 11:42:09;;;;;;;0.00;0.00;;;34.30;48.30;;;;;;4707980;30;20147;-76
2021/07/30 11:44:52;;;;;;;0.00;0.00;;;34.30;51.10;;;;;;4710225;30;20053;-76
2021/07/30 11:47:22;;;;;;;0.00;0.00;;;34.50;50.20;;;;;;4709789;30;20065;-76
2021/07/30 11:50:04;;;;;;;0.00;0.00;;;34.60;49.50;;;;;;4710338;30;20040;-75
2021/07/30 11:52:31;;;;;;;0.00;0.00;;;34.50;48.60;;;;;;4706952;30;20045;-76
2021/07/30 11:55:17;;;;;;;0.10;0.00;;;34.30;48.10;;;;;;4705676;30;20044;-76
2021/07/30 11:57:50;;;;;;;0.00;0.00;;;34.20;48.60;;;;;;4711032;30;20039;-76
2021/07/30 12:00:27;;;;;;;0.00;0.00;;;34.10;48.50;;;;;;4710055;30;20041;-76
2021/07/30 12:02:54;;;;;;;0.00;0.00;;;34.10;48.70;;;;;;4710077;30;20057;-75
2021/07/30 12:05:32;;;;;;;0.00;0.00;;;34.10;48.10;;;;;;4711119;30;20304;-76
2021/07/30 12:07:59;;;;;;;0.00;0.00;;;34.20;50.30;;;;;;4706296;30;20030;-75
2021/07/30 12:10:26;;;;;;;0.00;0.00;;;34.30;48.10;;;;;;4680792;30;20034;-76
2021/07/30 12:12:53;;;;;;;0.00;0.00;;;34.20;49.40;;;;;;4710158;30;20096;-76
2021/07/30 12:15:25;;;;;;;0.00;0.00;;;34.20;48.00;;;;;;4707451;30;20042;-75
2021/07/30 12:18:00;;;;;;;0.00;0.00;;;34.40;49.30;;;;;;4705225;30;20087;-77
2021/07/30 12:20:34;;;;;;;0.00;0.00;;;34.40;51.30;;;;;;4709655;30;20038;-75
2021/07/30 12:23:09;;;;;;;0.00;0.00;;;34.60;48.70;;;;;;4707889;30;20100;-76
2021/07/30 12:25:45;;;;;;;0.00;0.00;;;34.70;49.00;;;;;;4708257;30;20042;-76
2021/07/30 12:28:13;;;;;;;0.00;0.00;;;34.70;48.90;;;;;;4708439;30;20329;-76
2021/07/30 12:30:40;;;;;;;0.00;0.00;;;34.90;49.10;;;;;;4708768;30;20037;-76
2021/07/30 12:33:25;;;;;;;0.00;0.00;;;35.00;48.90;;;;;;4706525;30;20046;-78
2021/07/30 12:36:11;;;;;;;0.00;0.00;;;35.00;48.60;;;;;;4708911;30;20090;-75
2021/07/30 12:39:03;;;;;;;;;;;35.20;47.00;;;;;;4694038;30;20030;-76
2021/07/30 12:41:33;;;;;;;0.00;0.00;;;35.50;47.20;;;;;;4707898;30;19911;-77
2021/07/30 12:44:17;;;;;;;0.00;0.00;;;35.70;46.70;;;;;;4695380;30;20040;-76
2021/07/30 12:46:51;;;;;;;0.00;0.00;;;35.80;45.70;;;;;;4689337;30;20230;-76
2021/07/30 12:49:34;;;;;;;0.13;0.00;;;35.70;45.20;;;;;;4701514;30;20216;-76
2021/07/30 12:52:12;;;;;;;0.00;0.00;;;35.50;46.20;;;;;;4706719;30;20238;-76
2021/07/30 12:54:37;;;;;;;0.00;0.00;;;35.40;45.90;;;;;;4710342;30;20029;-77
2021/07/30 12:57:04;;;;;;;0.00;0.00;;;35.40;46.60;;;;;;4694595;30;20044;-76
2021/07/30 12:59:49;;;;;;;0.00;0.00;;;35.40;43.90;;;;;;4708200;30;20045;-76
2021/07/30 13:02:16;;;;;;;0.00;0.00;;;35.30;46.70;;;;;;4716042;30;20041;-76
2021/07/30 13:04:42;;;;;;;0.00;0.00;;;35.40;44.90;;;;;;4709255;30;20084;-77
2021/07/30 13:07:11;;;;;;;0.00;0.00;;;35.50;47.60;;;;;;4708188;30;20301;-76
2021/07/30 13:09:38;;;;;;;0.00;0.00;;;35.40;43.00;;;;;;4694862;30;20038;-76
2021/07/30 13:12:04;;;;;;;0.00;0.00;;;35.20;45.10;;;;;;4708092;30;20037;-76
2021/07/30 13:14:30;;;;;;;0.00;0.00;;;35.00;44.20;;;;;;4704258;30;20225;-75
2021/07/30 13:16:56;;;;;;;0.07;0.00;;;34.70;45.90;;;;;;4709075;30;20084;-76
2021/07/30 13:19:22;;;;;;;0.00;0.00;;;34.50;44.90;;;;;;4705234;30;20633;-76
2021/07/30 13:21:48;;;;;;;0.00;0.00;;;34.40;45.60;;;;;;4694256;30;20045;-76
2021/07/30 13:24:14;;;;;;;0.00;0.00;;;34.20;43.50;;;;;;4709785;30;20292;-77
2021/07/30 13:26:39;;;;;;;0.00;0.00;;;34.10;46.50;;;;;;4708878;30;20292;-76
2021/07/30 13:29:05;;;;;;;0.00;0.00;;;34.10;45.80;;;;;;4708345;30;20046;-77
2021/07/30 13:31:31;;;;;;;0.10;0.00;;;34.10;45.10;;;;;;4706858;30;20037;-77
2021/07/30 13:33:57;;;;;;;0.00;0.00;;;34.00;43.00;;;;;;4710647;30;20029;-77
2021/07/30 13:36:23;;;;;;;0.00;0.00;;;33.90;43.80;;;;;;4711505;30;20068;-77
2021/07/30 13:38:49;;;;;;;0.00;0.00;;;33.90;43.20;;;;;;4711221;30;20034;-77
2021/07/30 13:41:15;;;;;;;0.00;0.00;;;33.90;43.60;;;;;;4711991;30;20042;-78
2021/07/30 13:43:42;;;;;;;;;;;33.90;43.50;;;;;;4712740;30;20041;-78
2021/07/30 13:46:08;;;;;;;0.00;0.00;;;33.90;44.00;;;;;;4706577;30;19927;-78
2021/07/30 13:48:34;;;;;;;0.00;0.00;;;34.10;42.40;;;;;;4712748;30;20097;-78
2021/07/30 13:51:03;;;;;;;0.00;0.00;;;34.30;43.10;;;;;;4710641;30;20356;-77
2021/07/30 13:53:30;;;;;;;0.20;0.00;;;34.50;42.30;;;;;;4719219;30;20305;-77
2021/07/30 13:55:56;;;;;;;0.00;0.00;;;34.70;42.40;;;;;;4704680;30;20041;-77
2021/07/30 13:58:21;;;;;;;0.00;0.00;;;34.80;40.10;;;;;;4708662;30;20036;-76
2021/07/30 14:00:48;;;;;;;0.00;0.00;;;34.90;37.80;;;;;;4694280;30;20037;-76
2021/07/30 14:03:14;;;;;;;0.00;0.00;;;34.70;38.70;;;;;;4708300;30;20180;-76
2021/07/30 14:05:44;;;;;;;0.00;0.00;;;34.70;37.70;;;;;;4694055;30;20045;-77
2021/07/30 14:08:14;;;;;;;0.00;0.00;;;34.80;38.70;;;;;;4709357;30;20034;-76
2021/07/30 14:10:40;;;;;;;0.00;0.00;;;34.90;38.70;;;;;;4708130;30;20305;-77
2021/07/30 14:13:06;;;;;;;0.00;0.00;;;35.00;36.20;;;;;;4708852;30;20065;-77
2021/07/30 14:15:32;;;;;;;0.00;0.00;;;35.20;40.60;;;;;;4710529;30;20041;-77
2021/07/30 14:18:02;;;;;;;0.00;0.00;;;35.40;39.30;;;;;;4694133;30;20025;-77
2021/07/30 14:20:28;;;;;;;0.00;0.00;;;35.50;39.20;;;;;;4693964;30;20048;-77
2021/07/30 14:22:54;;;;;;;0.00;0.00;;;35.60;37.20;;;;;;4708338;30;20065;-77
2021/07/30 14:25:20;;;;;;;0.00;0.00;;;35.50;38.10;;;;;;4706225;30;20045;-77
2021/07/30 14:27:46;;;;;;;0.00;0.00;;;35.50;35.50;;;;;;4692117;30;20329;-77
2021/07/30 14:30:12;;;;;;;0.00;0.00;;;35.40;35.70;;;;;;4708299;30;20041;-77
2021/07/30 14:32:38;;;;;;;0.00;0.00;;;35.40;39.10;;;;;;4707351;30;20029;-76
2021/07/30 14:35:05;;;;;;;0.00;0.00;;;35.40;36.40;;;;;;4708076;30;20041;-76
2021/07/30 14:37:32;;;;;;;0.00;0.00;;;35.40;39.50;;;;;;4707398;30;20400;-76
2021/07/30 14:39:57;;;;;;;0.00;0.00;;;35.40;38.80;;;;;;4708485;30;20044;-76
2021/07/30 14:42:23;;;;;;;0.00;0.00;;;35.40;40.20;;;;;;4708030;30;20033;-75
2021/07/30 14:44:49;;;;;;;0.00;0.00;;;35.50;42.30;;;;;;4708131;30;20034;-75
2021/07/30 14:47:15;;;;;;;0.00;0.00;;;35.60;39.70;;;;;;4706985;30;20057;-76
2021/07/30 14:49:41;;;;;;;0.00;0.00;;;35.60;35.60;;;;;;4708857;30;20041;-75
2021/07/30 14:52:11;;;;;;;0.00;0.00;;;35.40;39.80;;;;;;4693662;30;20040;-76
2021/07/30 14:54:37;;;;;;;0.00;0.00;;;35.30;40.70;;;;;;4708867;30;20117;-76
2021/07/30 14:57:04;;;;;;;0.00;0.00;;;35.30;42.90;;;;;;4707687;30;20041;-76
2021/07/30 14:59:30;;;;;;;0.00;0.00;;;35.30;43.50;;;;;;4708856;30;20042;-76
2021/07/30 15:01:56;;;;;;;0.00;0.00;;;35.30;43.40;;;;;;4707620;30;20092;-75
2021/07/30 15:04:22;;;;;;;0.00;0.00;;;35.30;43.30;;;;;;4713592;30;20037;-76
2021/07/30 15:06:48;;;;;;;0.00;0.00;;;35.30;42.90;;;;;;4704243;30;20322;-75
2021/07/30 15:09:14;;;;;;;0.00;0.00;;;35.30;44.00;;;;;;4702931;30;20065;-75
2021/07/30 15:11:43;;;;;;;0.00;0.00;;;35.20;43.60;;;;;;4708332;30;20302;-75
2021/07/30 15:14:12;;;;;;;0.00;0.00;;;35.00;45.60;;;;;;4708848;30;20034;-75
2021/07/30 15:16:45;;;;;;;0.00;0.00;;;34.70;46.80;;;;;;4698960;30;20213;-75
2021/07/30 15:19:12;;;;;;;0.00;0.00;;;34.40;46.80;;;;;;4702147;30;20033;-76
2021/07/30 15:21:38;;;;;;;0.00;0.00;;;34.40;48.40;;;;;;4707450;30;20068;-76
2021/07/30 15:24:05;;;;;;;0.00;0.00;;;34.20;47.40;;;;;;4701602;30;20069;-76
2021/07/30 15:26:31;;;;;;;0.00;0.00;;;34.10;49.00;;;;;;4710425;30;20036;-76
2021/07/30 15:29:00;;;;;;;0.00;0.00;;;34.10;49.20;;;;;;4709125;30;20048;-76
2021/07/30 15:31:30;;;;;;;0.00;0.00;;;34.00;48.60;;;;;;4711800;30;20025;-76
2021/07/30 15:33:58;;;;;;;0.00;0.00;;;33.80;50.00;;;;;;4709001;30;20230;-75
2021/07/30 15:36:31;;;;;;;0.00;0.00;;;33.70;51.20;;;;;;4708377;30;20038;-75
2021/07/30 15:38:57;;;;;;;0.00;0.00;;;33.60;51.60;;;;;;4689783;30;20037;-75
2021/07/30 15:41:23;;;;;;;0.00;0.00;;;33.40;51.40;;;;;;4718142;30;20057;-75